Time;durP1;ratioP1;P1;durP2;ratioP2;P2;SDS_P1;SDS_P2;PMS_P1;PMS_P2;Temp;Humidity;BMP_temperature;BMP_pressure;BME280_temperature;BME280_humidity;BME280_pressure;Samples;Min_cycle;Max_cycle;Signal;HPM_P1;HPM_P2
2023/09/18 00:00:21;;;;;;;1999.90;999.90;;;;;;;17.45;100.00;94490.84;5063676;28;20170;-50
2023/09/18 00:02:47;;;;;;;1999.90;999.90;;;;;;;17.43;100.00;94496.81;5063210;28;20166;-49
2023/09/18 00:05:15;;;;;;;1999.90;999.90;;;;;;;17.41;100.00;94502.03;5063312;28;20221;-52
2023/09/18 00:07:41;;;;;;;1999.90;999.90;;;;;;;17.41;100.00;94509.53;5063167;28;20173;-50
2023/09/18 00:10:06;;;;;;;1999.90;999.90;;;;;;;17.39;100.00;94525.78;5063076;28;20162;-52
2023/09/18 00:12:32;;;;;;;1999.90;999.90;;;;;;;17.44;100.00;94539.00;5066524;28;20437;-49
2023/09/18 00:14:57;;;;;;;1999.90;999.90;;;;;;;17.44;100.00;94550.06;5067496;28;20161;-51
2023/09/18 00:17:23;;;;;;;1999.90;999.90;;;;;;;17.44;100.00;94567.34;5066664;28;20361;-50
2023/09/18 00:19:49;;;;;;;1999.90;999.90;;;;;;;17.44;100.00;94577.66;5067226;28;20166;-53
2023/09/18 00:22:14;;;;;;;1999.90;999.90;;;;;;;17.46;100.00;94588.97;5067210;28;20500;-49
2023/09/18 00:24:39;;;;;;;1999.90;999.90;;;;;;;17.46;100.00;94600.81;5066476;28;20197;-48
2023/09/18 00:27:05;;;;;;;1999.90;999.90;;;;;;;17.47;100.00;94604.31;5066568;28;20246;-49
2023/09/18 00:29:30;;;;;;;1999.90;999.90;;;;;;;17.47;100.00;94615.34;5066510;28;20177;-50
2023/09/18 00:31:55;;;;;;;1999.90;999.90;;;;;;;17.47;100.00;94615.34;5066526;28;20170;-52
2023/09/18 00:34:21;;;;;;;1999.90;999.90;;;;;;;17.41;100.00;94623.50;5066361;28;20177;-50
2023/09/18 00:36:46;;;;;;;1999.90;999.90;;;;;;;17.41;100.00;94617.97;5067069;28;20197;-54
2023/09/18 00:39:11;;;;;;;1999.90;999.90;;;;;;;17.42;100.00;94629.81;5066729;28;20170;-55
2023/09/18 00:41:37;;;;;;;1999.90;999.90;;;;;;;17.43;100.00;94634.09;5066754;28;20173;-53
2023/09/18 00:44:05;;;;;;;1999.90;999.90;;;;;;;17.40;100.00;94626.69;5066916;28;20190;-52
2023/09/18 00:46:31;;;;;;;1999.90;999.90;;;;;;;17.36;100.00;94632.41;5066202;28;20169;-52
2023/09/18 00:48:56;;;;;;;1999.90;999.90;;;;;;;17.33;100.00;94632.56;5066184;28;20158;-50
2023/09/18 00:51:22;;;;;;;1999.90;999.90;;;;;;;17.29;100.00;94632.72;5066253;28;20162;-54
2023/09/18 00:53:48;;;;;;;1999.90;999.90;;;;;;;17.29;100.00;94631.94;5066301;28;20171;-53
2023/09/18 00:56:14;;;;;;;1999.90;999.90;;;;;;;17.29;100.00;94631.94;5066494;28;20158;-53
2023/09/18 00:58:40;;;;;;;1999.90;999.90;;;;;;;17.30;100.00;94639.75;5066369;28;20206;-53
2023/09/18 01:01:05;;;;;;;1999.90;999.90;;;;;;;17.30;100.00;94639.03;5065905;28;20169;-47
2023/09/18 01:03:31;;;;;;;1999.90;999.90;;;;;;;17.30;100.00;94639.03;5065632;28;20225;-50
2023/09/18 01:05:57;;;;;;;1999.90;999.90;;;;;;;17.30;100.00;94639.03;5066359;28;20162;-50
2023/09/18 01:08:23;;;;;;;1999.90;999.90;;;;;;;17.34;100.00;94645.13;5066485;28;20207;-52
2023/09/18 01:11:00;;;;;;;1999.90;999.90;;;;;;;17.33;100.00;94643.63;5065763;28;20236;-51
2023/09/18 01:13:48;;;;;;;1999.90;999.90;;;;;;;17.33;100.00;94638.84;5066088;28;20169;-46
2023/09/18 01:16:22;;;;;;;1999.90;999.90;;;;;;;17.33;100.00;94649.88;5065368;28;20233;-50
2023/09/18 01:18:51;;;;;;;1999.90;999.90;;;;;;;17.33;100.00;94654.66;5066410;28;20244;-52
2023/09/18 01:21:19;;;;;;;1999.90;999.90;;;;;;;17.36;100.00;94676.56;5065552;28;20174;-49
2023/09/18 01:23:45;;;;;;;1999.90;999.90;;;;;;;17.39;100.00;94677.63;5066124;28;20206;-49
2023/09/18 01:26:10;;;;;;;1999.90;999.90;;;;;;;17.37;100.00;94678.09;5065892;28;20169;-51
2023/09/18 01:28:35;;;;;;;1999.90;999.90;;;;;;;17.36;100.00;94673.03;5066103;28;20162;-48
2023/09/18 01:31:01;;;;;;;1999.90;999.90;;;;;;;17.33;100.00;94677.50;5066036;28;20162;-49
2023/09/18 01:33:28;;;;;;;1999.90;999.90;;;;;;;17.35;100.00;94682.53;5064937;28;20162;-51
2023/09/18 01:35:55;;;;;;;1999.90;999.90;;;;;;;17.35;100.00;94680.56;5065662;28;20245;-52
2023/09/18 01:38:23;;;;;;;1999.90;999.90;;;;;;;17.33;100.00;94679.50;5065584;28;20221;-50
2023/09/18 01:40:50;;;;;;;1999.90;999.90;;;;;;;17.29;100.00;94687.16;5065217;28;20162;-49
2023/09/18 01:43:15;;;;;;;1999.90;999.90;;;;;;;17.30;100.00;94677.66;5065614;28;20162;-52
2023/09/18 01:45:42;;;;;;;1999.90;999.90;;;;;;;17.30;100.00;94677.66;5064947;28;20232;-51
2023/09/18 01:48:08;;;;;;;1999.90;999.90;;;;;;;17.27;100.00;94668.31;5065201;28;20264;-49
2023/09/18 01:50:33;;;;;;;1999.90;999.90;;;;;;;17.21;100.00;94666.63;5065537;28;20184;-52
2023/09/18 01:52:59;;;;;;;1999.90;999.90;;;;;;;17.17;100.00;94652.22;5065106;28;20199;-48
2023/09/18 01:55:24;;;;;;;1999.90;999.90;;;;;;;17.11;100.00;94638.28;5065117;28;20203;-49
2023/09/18 01:57:49;;;;;;;1999.90;999.90;;;;;;;17.02;100.00;94640.31;5065207;28;20193;-50
2023/09/18 02:00:15;;;;;;;1999.90;999.90;;;;;;;16.98;100.00;94625.91;5064768;28;20162;-52
2023/09/18 02:02:41;;;;;;;1999.90;999.90;;;;;;;16.90;100.00;94606.13;5065152;28;20166;-52
2023/09/18 02:05:06;;;;;;;1999.90;999.90;;;;;;;16.85;100.00;94592.22;5064506;28;20228;-50
2023/09/18 02:07:32;;;;;;;1999.90;999.90;;;;;;;16.83;100.00;94608.47;5064694;28;20166;-51
2023/09/18 02:09:57;;;;;;;1999.90;999.90;;;;;;;16.86;100.00;94613.06;5064698;28;20158;-51
2023/09/18 02:12:22;;;;;;;1999.90;999.90;;;;;;;16.89;100.00;94598.34;5064500;28;20162;-52
2023/09/18 02:14:48;;;;;;;1999.90;999.90;;;;;;;16.90;100.00;94594.34;5064566;28;20185;-51
2023/09/18 02:17:13;;;;;;;1999.90;999.90;;;;;;;16.88;100.00;94592.06;5064434;28;20164;-53
2023/09/18 02:19:38;;;;;;;1999.90;999.90;;;;;;;16.89;100.00;94598.34;5064470;28;20162;-51
2023/09/18 02:22:04;;;;;;;1999.90;999.90;;;;;;;16.90;100.00;94599.88;5064307;28;20158;-51
2023/09/18 02:24:29;;;;;;;1999.90;999.90;;;;;;;16.90;100.00;94588.84;5064252;28;20264;-52
2023/09/18 02:26:55;;;;;;;1999.90;999.90;;;;;;;16.91;100.00;94607.69;5064258;28;20162;-51
2023/09/18 02:29:20;;;;;;;1999.90;999.90;;;;;;;16.90;100.00;94602.63;5064335;28;20162;-49
2023/09/18 02:31:46;;;;;;;1999.90;999.90;;;;;;;16.91;100.00;94604.94;5064174;28;20162;-49
2023/09/18 02:34:11;;;;;;;1999.90;999.90;;;;;;;16.91;100.00;94606.91;5063788;28;20165;-52
2023/09/18 02:36:36;;;;;;;1999.90;999.90;;;;;;;16.87;100.00;94601.56;5064122;28;20162;-54
2023/09/18 02:39:02;;;;;;;1999.90;999.90;;;;;;;16.85;100.00;94611.50;5064147;28;20168;-51
2023/09/18 02:41:28;;;;;;;1999.90;999.90;;;;;;;16.85;100.00;94614.28;5064056;28;20275;-51
2023/09/18 02:43:53;;;;;;;1999.90;999.90;;;;;;;16.86;100.00;94615.81;5064748;28;20258;-49
2023/09/18 02:46:18;;;;;;;1999.90;999.90;;;;;;;16.85;100.00;94609.53;5063981;28;20169;-51
2023/09/18 02:48:44;;;;;;;1999.90;999.90;;;;;;;16.80;100.00;94612.16;5064012;28;20165;-53
2023/09/18 02:51:09;;;;;;;1999.90;999.90;;;;;;;16.80;100.00;94618.44;5063958;28;20162;-49
2023/09/18 02:53:35;;;;;;;1999.90;999.90;;;;;;;16.83;100.00;94627.78;5064550;28;20196;-49
2023/09/18 02:56:01;;;;;;;1999.90;999.90;;;;;;;16.88;100.00;94624.38;5063859;28;20166;-50
2023/09/18 02:58:29;;;;;;;1999.90;999.90;;;;;;;16.87;100.00;94611.84;5063924;28;20190;-53
2023/09/18 03:00:55;;;;;;;1999.90;999.90;;;;;;;16.86;100.00;94621.34;5064312;28;20237;-53
2023/09/18 03:03:21;;;;;;;1999.90;999.90;;;;;;;16.90;100.00;94627.47;5063455;28;20213;-50
2023/09/18 03:05:46;;;;;;;1999.90;999.90;;;;;;;16.90;100.00;94627.47;5064031;28;20165;-53
2023/09/18 03:08:13;;;;;;;1999.90;999.90;;;;;;;16.90;100.00;94627.47;5064256;28;20166;-53
2023/09/18 03:10:40;;;;;;;1999.90;999.90;;;;;;;16.90;100.00;94628.22;5063674;28;20162;-48
2023/09/18 03:13:06;;;;;;;1999.90;999.90;;;;;;;16.93;100.00;94638.31;5063767;28;20173;-49
2023/09/18 03:15:32;;;;;;;1999.90;999.90;;;;;;;16.98;100.00;94631.44;5064174;28;20165;-50
2023/09/18 03:17:59;;;;;;;1999.90;999.90;;;;;;;16.97;100.00;94633.41;5063668;28;20211;-51
2023/09/18 03:20:31;;;;;;;1999.90;999.90;;;;;;;17.01;100.00;94633.25;5064077;28;20162;-52
2023/09/18 03:22:58;;;;;;;1999.90;999.90;;;;;;;17.05;100.00;94637.41;5064298;28;20240;-49
2023/09/18 03:25:24;;;;;;;1999.90;999.90;;;;;;;17.05;100.00;94647.66;5063464;28;20186;-53
2023/09/18 03:27:51;;;;;;;1999.90;999.90;;;;;;;17.06;100.00;94646.44;5063629;28;20169;-53
2023/09/18 03:30:18;;;;;;;1999.90;999.90;;;;;;;17.10;100.00;94649.78;5063730;28;20158;-52
2023/09/18 03:32:44;;;;;;;1999.90;999.90;;;;;;;17.07;100.00;94647.94;5063557;28;20173;-52
2023/09/18 03:35:17;;;;;;;1999.90;999.90;;;;;;;17.06;100.00;94643.66;5064002;28;20162;-54
2023/09/18 03:37:43;;;;;;;1999.90;999.90;;;;;;;17.01;100.00;94641.53;5064015;28;20197;-49
2023/09/18 03:40:09;;;;;;;1999.90;999.90;;;;;;;16.99;100.00;94638.47;5063448;28;20162;-51
2023/09/18 03:42:34;;;;;;;1999.90;999.90;;;;;;;17.00;100.00;94646.28;5063442;28;20166;-50
2023/09/18 03:45:00;;;;;;;1999.90;999.90;;;;;;;17.02;100.00;94646.59;5063288;28;20196;-51
2023/09/18 03:47:25;;;;;;;1999.90;999.90;;;;;;;17.01;100.00;94645.03;5066442;28;20162;-53
2023/09/18 03:49:51;;;;;;;1999.90;999.90;;;;;;;17.02;100.00;94637.53;5067237;28;20166;-52
2023/09/18 03:52:16;;;;;;;1999.90;999.90;;;;;;;17.05;100.00;94620.84;5067467;28;20166;-52
2023/09/18 03:54:41;;;;;;;1999.90;999.90;;;;;;;17.08;100.00;94630.19;5067095;28;20231;-53
2023/09/18 03:57:07;;;;;;;1999.90;999.90;;;;;;;17.06;100.00;94624.34;5067473;28;20182;-57
2023/09/18 03:59:32;;;;;;;1999.90;999.90;;;;;;;17.03;100.00;94636.31;5067495;28;20169;-56
2023/09/18 04:01:57;;;;;;;1999.90;999.90;;;;;;;16.99;100.00;94624.66;5066991;28;20207;-52
2023/09/18 04:04:23;;;;;;;1999.90;999.90;;;;;;;16.98;100.00;94631.44;5066561;28;20267;-52
2023/09/18 04:06:49;;;;;;;1999.90;999.90;;;;;;;17.00;100.00;94631.75;5067450;28;20212;-53
2023/09/18 04:09:15;;;;;;;1999.90;999.90;;;;;;;16.99;100.00;94630.19;5066683;28;20166;-53
2023/09/18 04:11:40;;;;;;;1999.90;999.90;;;;;;;16.99;100.00;94630.19;5066781;28;20166;-50
2023/09/18 04:14:05;;;;;;;1999.90;999.90;;;;;;;16.98;100.00;94634.97;5066741;28;20166;-48
2023/09/18 04:16:35;;;;;;;1999.90;999.90;;;;;;;16.93;100.00;94632.81;5066684;28;20173;-51
2023/09/18 04:19:01;;;;;;;1999.90;999.90;;;;;;;16.88;100.00;94627.91;5067307;28;20162;-51
2023/09/18 04:21:27;;;;;;;1999.90;999.90;;;;;;;16.89;100.00;94615.66;5067214;28;20451;-52
2023/09/18 04:23:57;;;;;;;1999.90;999.90;;;;;;;16.78;100.00;94603.59;5066473;28;20189;-48
2023/09/18 04:26:29;;;;;;;1999.90;999.90;;;;;;;16.68;100.00;94607.56;5066923;28;20204;-53
2023/09/18 04:28:55;;;;;;;1999.90;999.90;;;;;;;16.66;100.00;94607.25;5066981;28;20166;-51
2023/09/18 04:31:20;;;;;;;1999.90;999.90;;;;;;;16.59;100.00;94596.53;5066686;28;20204;-51
2023/09/18 04:33:46;;;;;;;1999.90;999.90;;;;;;;16.55;100.00;94582.16;5066410;28;20200;-52
2023/09/18 04:36:11;;;;;;;1999.90;999.90;;;;;;;16.52;100.00;94574.78;5066816;28;20169;-53
2023/09/18 04:38:37;;;;;;;1999.90;999.90;;;;;;;16.52;100.00;94563.78;5066244;28;20344;-52
2023/09/18 04:41:02;;;;;;;1999.90;999.90;;;;;;;16.50;100.00;94555.22;5066212;28;20246;-52
2023/09/18 04:43:29;;;;;;;1999.90;999.90;;;;;;;16.48;100.00;94563.94;5066893;28;20245;-51
2023/09/18 04:45:55;;;;;;;1999.90;999.90;;;;;;;16.44;100.00;94555.81;5066041;28;20215;-54
2023/09/18 04:48:21;;;;;;;1999.90;999.90;;;;;;;16.47;100.00;94550.63;5065935;28;20173;-54
2023/09/18 04:50:46;;;;;;;1999.90;999.90;;;;;;;16.46;100.00;94554.59;5066498;28;20169;-53
2023/09/18 04:53:13;;;;;;;1999.90;999.90;;;;;;;16.48;100.00;94558.44;5066448;28;20245;-54
2023/09/18 04:55:38;;;;;;;1999.90;999.90;;;;;;;16.49;100.00;94564.72;5065882;28;20170;-56
2023/09/18 04:58:05;;;;;;;1999.90;999.90;;;;;;;16.47;100.00;94551.38;5065438;28;20205;-49
2023/09/18 05:00:31;;;;;;;1999.90;999.90;;;;;;;16.52;100.00;94547.22;5065742;28;20166;-54
2023/09/18 05:03:01;;;;;;;1999.90;999.90;;;;;;;16.53;100.00;94546.78;5065949;28;20174;-51
2023/09/18 05:05:27;;;;;;;1999.90;999.90;;;;;;;16.58;100.00;94548.16;5066174;28;20212;-54
2023/09/18 05:07:52;;;;;;;1999.90;999.90;;;;;;;16.63;100.00;94544.75;5065707;28;20173;-53
2023/09/18 05:10:17;;;;;;;1999.90;999.90;;;;;;;16.67;100.00;94559.19;5066103;28;20170;-56
2023/09/18 05:12:43;;;;;;;1999.90;999.90;;;;;;;16.79;100.00;94567.25;5065970;28;20174;-53
2023/09/18 05:15:15;;;;;;;1999.90;999.90;;;;;;;16.92;100.00;94578.09;5065770;28;20193;-56
2023/09/18 05:17:48;;;;;;;1999.90;999.90;;;;;;;17.07;100.00;94590.78;5065990;28;20276;-52
2023/09/18 05:20:16;;;;;;;1999.90;999.90;;;;;;;17.18;100.00;94606.84;5065524;28;20253;-55
2023/09/18 05:22:42;;;;;;;1999.90;999.90;;;;;;;17.38;100.00;94596.06;5065822;28;20174;-54
2023/09/18 05:25:09;;;;;;;1999.90;999.90;;;;;;;17.49;100.00;94601.84;5065313;28;20197;-55
2023/09/18 05:27:36;;;;;;;1999.90;999.90;;;;;;;17.61;100.00;94600.88;5065706;28;20177;-54
2023/09/18 05:30:01;;;;;;;1999.90;999.90;;;;;;;17.80;100.00;94602.31;5065279;28;20169;-53
2023/09/18 05:32:26;;;;;;;1999.90;999.90;;;;;;;17.99;100.00;94617.56;5065625;28;20439;-54
2023/09/18 05:34:52;;;;;;;1999.90;999.90;;;;;;;18.26;100.00;94629.22;5065891;28;20181;-53
2023/09/18 05:37:17;;;;;;;1999.90;999.90;;;;;;;18.67;100.00;94655.19;5065132;28;20172;-50
2023/09/18 05:39:42;;;;;;;1999.90;999.90;;;;;;;18.97;100.00;94662.31;5065136;28;20176;-53
2023/09/18 05:42:08;;;;;;;1999.90;999.90;;;;;;;19.27;100.00;94686.06;5064942;28;20166;-54
2023/09/18 05:44:33;;;;;;;1999.90;999.90;;;;;;;19.82;100.00;94687.00;5065615;28;20216;-55
2023/09/18 05:46:59;;;;;;;1999.90;999.90;;;;;;;20.23;100.00;94710.84;5065586;28;20265;-58
2023/09/18 05:49:24;;;;;;;1999.90;999.90;;;;;;;20.75;100.00;94718.13;5065437;28;20189;-54
2023/09/18 05:51:49;;;;;;;1999.90;999.90;;;;;;;21.32;100.00;94721.88;5064414;28;20176;-52
2023/09/18 05:54:15;;;;;;;1999.90;999.90;;;;;;;21.67;100.00;94719.69;5065327;28;20193;-50
2023/09/18 05:56:40;;;;;;;1999.90;999.90;;;;;;;22.02;100.00;94725.84;5064908;28;20277;-50
2023/09/18 05:59:05;;;;;;;1999.90;999.90;;;;;;;22.64;100.00;94716.69;5064709;28;20169;-54
2023/09/18 06:01:32;;;;;;;1999.90;999.90;;;;;;;23.25;100.00;94711.41;5064305;28;20177;-50
2023/09/18 06:03:58;;;;;;;1999.90;999.90;;;;;;;23.76;100.00;94711.78;5064466;28;20282;-51
2023/09/18 06:06:24;;;;;;;1999.90;999.90;;;;;;;24.43;100.00;94710.53;5064950;28;20165;-50
2023/09/18 06:08:50;;;;;;;1999.90;999.90;;;;;;;24.58;100.00;94721.44;5064302;28;20170;-54
2023/09/18 06:11:16;;;;;;;1999.90;999.90;;;;;;;24.85;100.00;94713.03;5064360;28;20194;-58
2023/09/18 06:13:41;;;;;;;1999.90;999.90;;;;;;;24.99;100.00;94727.97;5065130;28;20176;-55
2023/09/18 06:16:08;;;;;;;1999.90;999.90;;;;;;;25.50;100.00;94727.25;5064315;28;20165;-54
2023/09/18 06:18:35;;;;;;;1999.90;999.90;;;;;;;25.95;100.00;94722.13;5064728;28;20224;-56
2023/09/18 06:21:00;;;;;;;1999.90;999.90;;;;;;;26.20;100.00;94732.16;5064160;28;20216;-58
2023/09/18 06:23:26;;;;;;;1999.90;999.90;;;;;;;25.82;100.00;94719.94;5064457;28;20169;-56
2023/09/18 06:25:56;;;;;;;1999.90;999.90;;;;;;;25.51;100.00;94725.22;5064135;28;20205;-54
2023/09/18 06:28:21;;;;;;;1999.90;999.90;;;;;;;25.42;100.00;94720.69;5064055;28;20166;-56
2023/09/18 06:30:47;;;;;;;1999.90;999.90;;;;;;;25.56;100.00;94714.00;5064158;28;20193;-56
2023/09/18 06:33:12;;;;;;;1999.90;999.90;;;;;;;25.52;100.00;94707.16;5064091;28;20166;-58
2023/09/18 06:35:38;;;;;;;1999.90;999.90;;;;;;;25.55;100.00;94723.66;5064299;28;20169;-58
2023/09/18 06:38:05;;;;;;;1999.90;999.90;;;;;;;25.77;100.00;94722.78;5064820;28;20173;-56
2023/09/18 06:40:30;;;;;;;1999.90;999.90;;;;;;;26.28;100.00;94739.47;5064350;28;20258;-56
2023/09/18 06:43:02;;;;;;;1999.90;999.90;;;;;;;26.88;100.00;94729.03;5064469;28;20170;-57
2023/09/18 06:45:28;;;;;;;1999.90;999.90;;;;;;;27.35;100.00;94733.84;5064219;28;20272;-48
2023/09/18 06:47:53;;;;;;;1999.90;999.90;;;;;;;27.88;100.00;94741.34;5064482;28;20177;-54
2023/09/18 06:50:19;;;;;;;1999.90;999.90;;;;;;;27.84;100.00;94729.66;5063807;28;20161;-50
2023/09/18 06:52:45;;;;;;;1999.90;999.90;;;;;;;28.46;100.00;94749.91;5063963;28;20165;-52
2023/09/18 06:55:11;;;;;;;1999.90;999.90;;;;;;;28.58;100.00;94747.69;5063672;28;20166;-51
2023/09/18 06:57:36;;;;;;;1999.90;999.90;;;;;;;27.44;100.00;94758.75;5063796;28;20276;-50
2023/09/18 07:00:03;;;;;;;1999.90;999.90;;;;;;;26.58;100.00;94765.44;5064510;28;20162;-51
2023/09/18 07:02:28;;;;;;;1999.90;999.90;;;;;;;26.67;100.00;94770.75;5064150;28;20165;-53
2023/09/18 07:04:54;;;;;;;1999.90;999.90;;;;;;;27.28;100.00;94784.94;5063498;28;20241;-48
2023/09/18 07:07:25;;;;;;;1999.90;999.90;;;;;;;27.32;100.00;94790.25;5064040;28;20207;-49
2023/09/18 07:09:53;;;;;;;1999.90;999.90;;;;;;;27.49;100.00;94800.00;5063961;28;20220;-51
2023/09/18 07:12:19;;;;;;;1999.90;999.90;;;;;;;28.44;100.00;94807.97;5064372;28;20170;-52
2023/09/18 07:14:45;;;;;;;1999.90;999.90;;;;;;;28.94;100.00;94805.06;5063530;28;20181;-51
2023/09/18 07:17:11;;;;;;;1999.90;999.90;;;;;;;29.55;100.00;94796.28;5063524;28;20174;-48
2023/09/18 07:19:36;;;;;;;1999.90;999.90;;;;;;;30.69;100.00;94791.47;5064067;28;20177;-54
2023/09/18 07:22:02;;;;;;;1999.90;999.90;;;;;;;30.60;100.00;94792.69;5067383;28;20170;-54
2023/09/18 07:24:27;;;;;;;1999.90;999.90;;;;;;;30.67;100.00;94792.03;5068008;28;20197;-63
2023/09/18 07:26:53;;;;;;;1999.90;999.90;;;;;;;30.63;100.00;94802.16;5067986;28;20305;-51
2023/09/18 07:29:18;;;;;;;1999.90;999.90;;;;;;;30.84;100.00;94800.09;5067451;28;20241;-51
2023/09/18 07:31:44;;;;;;;1999.90;999.90;;;;;;;31.32;100.00;94799.41;5067561;28;20174;-50
2023/09/18 07:34:10;;;;;;;1999.90;999.90;;;;;;;31.36;100.00;94802.63;5067517;28;20170;-54
2023/09/18 07:36:36;;;;;;;1999.90;999.90;;;;;;;31.72;97.77;94805.50;5067970;28;20169;-49
2023/09/18 07:39:02;;;;;;;1999.90;999.90;;;;;;;30.94;100.00;94801.13;5068031;28;20192;-54
2023/09/18 07:41:27;;;;;;;1999.90;999.90;;;;;;;31.75;96.01;94802.28;5067196;28;20202;-52
2023/09/18 07:43:53;;;;;;;1999.90;999.90;;;;;;;31.96;94.32;94814.31;5067647;28;20202;-49
2023/09/18 07:46:18;;;;;;;1999.90;999.90;;;;;;;32.07;90.72;94813.97;5067820;28;20177;-52
2023/09/18 07:48:43;;;;;;;1999.90;999.90;;;;;;;31.89;96.66;94808.59;5067771;28;20181;-50
2023/09/18 07:51:12;;;;;;;1999.90;999.90;;;;;;;32.29;90.40;94810.47;5067652;28;20174;-53
2023/09/18 07:53:39;;;;;;;1999.90;999.90;;;;;;;32.11;90.40;94822.84;5067532;28;20174;-49
2023/09/18 07:56:04;;;;;;;1999.90;999.90;;;;;;;33.02;85.60;94824.66;5067527;28;20241;-48
2023/09/18 07:58:31;;;;;;;1999.90;999.90;;;;;;;33.34;81.26;94826.97;5066799;28;20209;-53
2023/09/18 08:00:59;;;;;;;1999.90;999.90;;;;;;;32.21;88.75;94832.31;5067032;28;20192;-54
2023/09/18 08:03:28;;;;;;;1999.90;999.90;;;;;;;33.02;84.27;94844.47;5066755;28;20287;-50
2023/09/18 08:05:54;;;;;;;1999.90;999.90;;;;;;;32.32;91.67;94840.50;5067364;28;20189;-54
2023/09/18 08:08:20;;;;;;;1999.90;999.90;;;;;;;32.05;91.15;94847.72;5066835;28;20177;-52
2023/09/18 08:10:46;;;;;;;1999.90;999.90;;;;;;;31.00;100.00;94841.28;5066872;28;20241;-50
2023/09/18 08:13:12;;;;;;;1999.90;999.90;;;;;;;30.23;100.00;94843.06;5066652;28;20176;-48
2023/09/18 08:15:38;;;;;;;1999.90;999.90;;;;;;;30.11;100.00;94847.38;5067002;28;20178;-59
2023/09/18 08:18:03;;;;;;;1999.90;999.90;;;;;;;29.41;100.00;94853.88;5066630;28;20241;-60
2023/09/18 08:20:29;;;;;;;1999.90;999.90;;;;;;;28.90;100.00;94844.00;5066506;28;20177;-51
2023/09/18 08:22:54;;;;;;;1999.90;999.90;;;;;;;27.97;100.00;94850.47;5066650;28;20174;-47
2023/09/18 08:25:20;;;;;;;1999.90;999.90;;;;;;;27.78;100.00;94838.44;5066413;28;20236;-51
2023/09/18 08:27:45;;;;;;;1999.90;999.90;;;;;;;27.25;100.00;94847.72;5066980;28;20170;-48
2023/09/18 08:30:12;;;;;;;1999.90;999.90;;;;;;;27.16;100.00;94852.84;5066540;28;20237;-47
2023/09/18 08:32:38;;;;;;;1999.90;999.90;;;;;;;26.85;100.00;94854.19;5066195;28;20170;-49
2023/09/18 08:35:05;;;;;;;1999.90;999.90;;;;;;;26.66;100.00;94853.28;5066436;28;20188;-47
2023/09/18 08:37:31;;;;;;;1999.90;999.90;;;;;;;26.59;100.00;94859.47;5066718;28;20166;-49
2023/09/18 08:39:56;;;;;;;1999.90;999.90;;;;;;;26.44;100.00;94859.03;5066783;28;20166;-51
2023/09/18 08:42:23;;;;;;;1999.90;999.90;;;;;;;26.13;100.00;94867.13;5066162;28;20186;-47
2023/09/18 08:44:51;;;;;;;1999.90;999.90;;;;;;;26.15;100.00;94865.31;5066366;28;20201;-46
2023/09/18 08:47:18;;;;;;;1999.90;999.90;;;;;;;26.11;100.00;94872.50;5065991;28;20287;-51
2023/09/18 08:49:48;;;;;;;1999.90;999.90;;;;;;;26.04;100.00;94879.38;5066364;28;20177;-53
2023/09/18 08:52:15;;;;;;;1999.90;999.90;;;;;;;25.94;100.00;94882.97;5065989;28;20177;-49
2023/09/18 08:54:42;;;;;;;1999.90;999.90;;;;;;;25.81;100.00;94891.94;5066480;28;20170;-50
2023/09/18 08:57:08;;;;;;;1999.90;999.90;;;;;;;25.78;100.00;94887.34;5065863;28;20190;-46
2023/09/18 08:59:35;;;;;;;1999.90;999.90;;;;;;;25.85;100.00;94892.41;5065882;28;20173;-48
2023/09/18 09:02:00;;;;;;;1999.90;999.90;;;;;;;25.52;100.00;94903.72;5065896;28;20170;-51
2023/09/18 09:04:26;;;;;;;1999.90;999.90;;;;;;;25.28;100.00;94903.50;5065628;28;20289;-48
2023/09/18 09:06:52;;;;;;;1999.90;999.90;;;;;;;25.22;100.00;94902.75;5066279;28;20215;-53
2023/09/18 09:09:19;;;;;;;1999.90;999.90;;;;;;;25.30;100.00;94921.31;5065735;28;20193;-48
2023/09/18 09:11:51;;;;;;;1999.90;999.90;;;;;;;25.16;100.00;94922.31;5066291;28;20179;-47
2023/09/18 09:14:21;;;;;;;1999.90;999.90;;;;;;;25.07;100.00;94930.22;5066135;28;20237;-46
2023/09/18 09:16:48;;;;;;;1999.90;999.90;;;;;;;24.85;100.00;94927.41;5066043;28;20185;-49
2023/09/18 09:19:16;;;;;;;1999.90;999.90;;;;;;;24.82;100.00;94922.84;5065655;28;20173;-47
2023/09/18 09:21:43;;;;;;;1999.90;999.90;;;;;;;24.68;100.00;94921.03;5065293;28;20241;-49
2023/09/18 09:24:10;;;;;;;1999.90;999.90;;;;;;;24.74;100.00;94908.63;5065808;28;20205;-48
2023/09/18 09:26:36;;;;;;;1999.90;999.90;;;;;;;24.92;100.00;94921.31;5065291;28;20174;-50
2023/09/18 09:29:18;;;;;;;1999.90;999.90;;;;;;;24.96;100.00;94910.66;5065378;28;20239;-52
2023/09/18 09:31:44;;;;;;;1999.90;999.90;;;;;;;25.25;100.00;94918.50;5065775;28;20170;-51
2023/09/18 09:34:09;;;;;;;1999.90;999.90;;;;;;;25.54;100.00;94917.97;5065690;28;20180;-48
2023/09/18 09:36:35;;;;;;;1999.90;999.90;;;;;;;25.50;100.00;94916.72;5065281;28;20219;-50
2023/09/18 09:39:02;;;;;;;1999.90;999.90;;;;;;;26.00;100.00;94903.34;5065119;28;20181;-48
2023/09/18 09:41:28;;;;;;;1999.90;999.90;;;;;;;26.34;100.00;94905.47;5065958;28;20237;-51
2023/09/18 09:43:54;;;;;;;1999.90;999.90;;;;;;;26.64;100.00;94903.53;5063887;28;20212;-50
2023/09/18 09:46:21;;;;;;;1999.90;999.90;;;;;;;26.86;100.00;94900.56;5065093;28;20181;-49
2023/09/18 09:49:06;;;;;;;1999.90;999.90;;;;;;;27.24;100.00;94895.94;5065530;28;20170;-48
2023/09/18 09:51:32;;;;;;;1999.90;999.90;;;;;;;27.22;100.00;94904.88;5064892;28;20170;-51
2023/09/18 09:53:59;;;;;;;1999.90;999.90;;;;;;;27.25;100.00;94920.66;5065405;28;20174;-50
2023/09/18 09:56:50;;;;;;;1999.90;999.90;;;;;;;27.17;100.00;94922.47;5064949;28;20311;-52
2023/09/18 09:59:18;;;;;;;1999.90;999.90;;;;;;;26.64;100.00;94922.38;5065521;28;20174;-49
2023/09/18 10:01:46;;;;;;;1999.90;999.90;;;;;;;26.69;100.00;94924.38;5065517;28;20173;-51
2023/09/18 10:04:17;;;;;;;1999.90;999.90;;;;;;;26.50;100.00;94938.22;5064343;28;20224;-52
2023/09/18 10:06:55;;;;;;;1999.90;999.90;;;;;;;26.55;100.00;94931.81;5065081;28;20173;-55
2023/09/18 10:09:22;;;;;;;1999.90;999.90;;;;;;;26.52;100.00;94927.25;5064914;28;20204;-54
2023/09/18 10:11:52;;;;;;;1999.90;999.90;;;;;;;26.41;100.00;94921.72;5064519;28;20170;-49
2023/09/18 10:14:29;;;;;;;1999.90;999.90;;;;;;;26.37;100.00;94918.41;5064970;28;20241;-50
2023/09/18 10:16:56;;;;;;;1999.90;999.90;;;;;;;25.94;100.00;94917.34;5065075;28;20237;-46
2023/09/18 10:19:28;;;;;;;1999.90;999.90;;;;;;;26.02;100.00;94923.19;5064716;28;20169;-51
2023/09/18 10:21:54;;;;;;;1999.90;999.90;;;;;;;25.91;100.00;94923.97;5064508;28;20174;-54
2023/09/18 10:24:24;;;;;;;1999.90;999.90;;;;;;;25.82;100.00;94921.44;5064406;28;20197;-51
2023/09/18 10:27:00;;;;;;;1999.90;999.90;;;;;;;26.05;100.00;94925.72;5064841;28;20170;-47
2023/09/18 10:29:26;;;;;;;1999.90;999.90;;;;;;;26.09;100.00;94917.81;5064993;28;20154;-48
2023/09/18 10:31:53;;;;;;;1999.90;999.90;;;;;;;25.87;100.00;94926.28;5064258;28;20170;-49
2023/09/18 10:34:20;;;;;;;1999.90;999.90;;;;;;;26.03;100.00;94919.88;5064558;28;20180;-50
2023/09/18 10:36:50;;;;;;;1999.90;999.90;;;;;;;25.83;100.00;94933.41;5064226;28;20170;-51
2023/09/18 10:39:19;;;;;;;1999.90;999.90;;;;;;;25.96;100.00;94954.00;5063981;28;20166;-49
2023/09/18 10:41:50;;;;;;;1999.90;999.90;;;;;;;26.10;100.00;94952.94;5063914;28;20174;-48
2023/09/18 10:44:19;;;;;;;1999.90;999.90;;;;;;;26.26;100.00;94954.88;5063785;28;20201;-48